Time;durP1;ratioP1;P1;durP2;ratioP2;P2;SDS_P1;SDS_P2;PMS_P1;PMS_P2;Temp;Humidity;BMP_temperature;BMP_pressure;BME280_temperature;BME280_humidity;BME280_pressure;Samples;Min_cycle;Max_cycle;Signal;HPM_P1;HPM_P2
2021/12/30 00:02:04;;;;;;;35.67;17.17;;;;;;;-5.29;100.00;98685.47;1623669;87;21034;-75
2021/12/30 00:04:31;;;;;;;32.47;15.60;;;;;;;-5.28;100.00;98684.98;1615685;87;21053;-76
2021/12/30 00:06:58;;;;;;;31.07;15.70;;;;;;;-5.28;100.00;98683.66;1629227;86;21049;-75
2021/12/30 00:09:28;;;;;;;31.67;15.27;;;;;;;-5.28;100.00;98680.55;1675795;85;21541;-75
2021/12/30 00:11:54;;;;;;;31.83;15.37;;;;;;;-5.28;100.00;98679.71;1678277;85;21030;-75
2021/12/30 00:14:21;;;;;;;28.23;15.03;;;;;;;-5.29;100.00;98690.73;1678354;85;21106;-76
2021/12/30 00:16:47;;;;;;;29.47;15.03;;;;;;;-5.29;100.00;98688.55;1678377;85;21027;-75
2021/12/30 00:19:15;;;;;;;29.77;15.80;;;;;;;-5.30;100.00;98700.89;1678123;85;21055;-75
2021/12/30 00:21:41;;;;;;;29.37;15.70;;;;;;;-5.30;100.00;98696.10;1678327;85;21524;-75
2021/12/30 00:24:09;;;;;;;33.30;16.27;;;;;;;-5.31;100.00;98691.31;1693490;83;21569;-75
2021/12/30 00:26:36;;;;;;;30.30;15.33;;;;;;;-5.32;100.00;98696.69;1712504;84;21056;-76
2021/12/30 00:29:04;;;;;;;30.30;14.93;;;;;;;-5.31;100.00;98690.45;1712102;84;21055;-75
2021/12/30 00:31:32;;;;;;;33.30;16.97;;;;;;;-5.31;100.00;98699.22;1665421;86;21063;-76
2021/12/30 00:33:59;;;;;;;30.43;16.33;;;;;;;-5.32;100.00;98694.05;1712609;84;21016;-75
2021/12/30 00:36:25;;;;;;;33.83;16.97;;;;;;;-5.33;100.00;98701.09;1712588;84;21112;-76
2021/12/30 00:38:52;;;;;;;31.10;17.47;;;;;;;-5.32;100.00;98702.80;1712702;84;21552;-75
2021/12/30 00:41:19;;;;;;;34.33;18.33;;;;;;;-5.32;100.00;98707.23;1712702;84;21040;-75
2021/12/30 00:43:46;;;;;;;36.37;17.87;;;;;;;-5.31;100.00;98703.17;1712719;84;21020;-75
2021/12/30 00:46:13;;;;;;;36.97;18.60;;;;;;;-5.30;100.00;98703.53;1712237;84;21558;-74
2021/12/30 00:48:39;;;;;;;34.37;18.70;;;;;;;-5.27;100.00;98696.74;1712270;84;21044;-76
2021/12/30 00:51:08;;;;;;;38.27;20.40;;;;;;;-5.24;100.00;98691.72;1665361;86;21080;-74
2021/12/30 00:53:35;;;;;;;41.20;20.17;;;;;;;-5.23;100.00;98698.69;1712654;83;21092;-75
2021/12/30 00:56:02;;;;;;;39.07;20.43;;;;;;;-5.21;100.00;98696.30;1712590;84;21091;-75
2021/12/30 00:58:29;;;;;;;40.33;20.40;;;;;;;-5.19;100.00;98701.48;1712403;84;21088;-75
2021/12/30 01:00:59;;;;;;;41.67;21.37;;;;;;;-5.18;100.00;98692.64;1712330;84;21016;-76
2021/12/30 01:03:25;;;;;;;43.13;21.97;;;;;;;-5.15;100.00;98694.59;1712586;84;21475;-75
2021/12/30 01:05:52;;;;;;;41.57;23.17;;;;;;;-5.16;100.00;98699.48;1712648;84;21552;-74
2021/12/30 01:08:19;;;;;;;41.67;21.63;;;;;;;-5.16;100.00;98699.95;1713792;83;21037;-75
2021/12/30 01:10:45;;;;;;;36.33;18.73;;;;;;;-5.13;100.00;98693.17;1718425;82;21030;-75
2021/12/30 01:13:18;;;;;;;40.50;20.97;;;;;;;-5.11;100.00;98695.22;1718660;83;21026;-75
2021/12/30 01:18:28;;;;;;;39.53;20.80;;;;;;;-5.17;100.00;98699.13;1612760;88;21031;-75
2021/12/30 01:20:51;;;;;;;42.23;21.50;;;;;;;-5.17;100.00;98707.48;1609455;89;21042;-75
2021/12/30 01:23:18;;;;;;;36.03;19.20;;;;;;;-5.20;100.00;98704.59;1612918;89;21018;-75
2021/12/30 01:25:44;;;;;;;38.23;19.80;;;;;;;-5.24;100.00;98709.72;1612386;88;21082;-74
2021/12/30 01:28:11;;;;;;;38.27;19.83;;;;;;;-5.26;100.00;98720.84;1645245;87;21077;-75
2021/12/30 01:30:38;;;;;;;36.33;19.20;;;;;;;-5.28;100.00;98724.51;1646713;87;21101;-75
2021/12/30 01:33:05;;;;;;;34.87;19.17;;;;;;;-5.27;100.00;98723.09;1646721;87;21066;-75
2021/12/30 01:35:34;;;;;;;39.53;19.93;;;;;;;-5.27;100.00;98723.09;1646581;87;21041;-74
2021/12/30 01:38:01;;;;;;;37.57;19.30;;;;;;;-5.27;100.00;98724.89;1646726;87;21092;-75
2021/12/30 01:40:30;;;;;;;39.23;19.63;;;;;;;-5.24;100.00;98720.70;1646498;87;21030;-75
2021/12/30 01:42:57;;;;;;;37.77;20.00;;;;;;;-5.21;100.00;98720.51;1646863;87;21021;-74
2021/12/30 01:45:25;;;;;;;35.20;18.47;;;;;;;-5.20;100.00;98715.14;1646602;87;21104;-75
2021/12/30 01:47:54;;;;;;;38.80;19.47;;;;;;;-5.17;100.00;98720.20;1646918;87;21562;-76
2021/12/30 01:50:22;;;;;;;42.37;18.00;;;;;;;-5.16;100.00;98712.66;1646842;87;21071;-75
2021/12/30 01:52:48;;;;;;;38.80;19.70;;;;;;;-5.11;100.00;98712.84;1646797;87;21053;-75
2021/12/30 01:55:16;;;;;;;35.20;17.90;;;;;;;-5.09;100.00;98710.45;1646846;87;21006;-74
2021/12/30 01:57:43;;;;;;;36.00;18.27;;;;;;;-5.07;100.00;98715.63;1646948;87;21058;-75
2021/12/30 02:00:13;;;;;;;39.93;19.87;;;;;;;-5.06;100.00;98710.25;1646382;87;21061;-76
2021/12/30 02:02:40;;;;;;;40.60;18.43;;;;;;;-5.05;100.00;98713.72;1645850;87;21091;-75
2021/12/30 02:05:08;;;;;;;41.50;19.90;;;;;;;-5.04;100.00;98712.30;1643291;87;21099;-75
2021/12/30 02:07:36;;;;;;;38.17;18.73;;;;;;;-5.06;100.00;98712.89;1643306;87;21075;-75
2021/12/30 02:10:06;;;;;;;39.10;17.90;;;;;;;-5.05;100.00;98717.67;1645498;87;21087;-75
2021/12/30 02:12:36;;;;;;;39.57;19.17;;;;;;;-5.06;100.00;98721.28;1645266;87;21029;-75
2021/12/30 02:15:09;;;;;;;37.10;17.40;;;;;;;-5.05;100.00;98725.58;1691328;82;21551;-73
2021/12/30 02:17:38;;;;;;;34.10;18.10;;;;;;;-5.06;100.00;98729.19;1725167;83;21524;-75
2021/12/30 02:20:13;;;;;;;35.83;18.37;;;;;;;-5.05;100.00;98725.58;1725033;83;21050;-75
2021/12/30 02:22:40;;;;;;;36.93;18.73;;;;;;;-5.08;100.00;98729.29;1721026;83;21054;-75
2021/12/30 02:25:09;;;;;;;33.07;17.23;;;;;;;-5.07;100.00;98740.66;1721466;83;21049;-75
2021/12/30 02:27:36;;;;;;;35.80;18.07;;;;;;;-5.08;100.00;98742.47;1697714;83;21038;-76
2021/12/30 02:30:03;;;;;;;36.50;18.30;;;;;;;-5.05;100.00;98733.49;1684651;84;21021;-75
2021/12/30 02:32:31;;;;;;;40.27;19.17;;;;;;;-5.05;100.00;98741.40;1684007;85;21611;-75
2021/12/30 02:34:57;;;;;;;41.97;21.17;;;;;;;-5.07;100.00;98732.76;1684350;85;21565;-74
2021/12/30 02:37:24;;;;;;;45.70;20.47;;;;;;;-5.07;100.00;98730.13;1684153;85;21089;-75
2021/12/30 02:39:54;;;;;;;39.80;19.23;;;;;;;-5.07;100.00;98734.08;1684291;85;21034;-75
2021/12/30 02:42:27;;;;;;;41.13;19.23;;;;;;;-5.06;100.00;98735.30;1680131;85;21615;-75
2021/12/30 02:44:55;;;;;;;40.43;20.13;;;;;;;-5.02;100.00;98731.97;1670916;86;21063;-75
2021/12/30 02:47:22;;;;;;;38.57;18.93;;;;;;;-5.03;100.00;98739.05;1680274;85;21599;-75
2021/12/30 02:49:48;;;;;;;39.57;19.97;;;;;;;-5.02;100.00;98744.67;1670724;86;21070;-75
2021/12/30 02:52:15;;;;;;;37.23;18.93;;;;;;;-5.06;100.00;98746.32;1680194;85;21078;-75
2021/12/30 02:54:44;;;;;;;36.47;18.40;;;;;;;-5.07;100.00;98748.09;1670567;86;21536;-75
2021/12/30 02:57:11;;;;;;;35.33;18.70;;;;;;;-5.07;100.00;98753.36;1679991;85;21062;-75
2021/12/30 02:59:38;;;;;;;38.17;19.87;;;;;;;-5.08;100.00;98756.09;1670636;86;21020;-75
2021/12/30 03:02:06;;;;;;;43.30;20.13;;;;;;;-5.08;100.00;98757.41;1678798;85;21054;-76
2021/12/30 03:04:35;;;;;;;38.73;20.30;;;;;;;-5.08;100.00;98762.23;1649981;87;21083;-75
2021/12/30 03:07:02;;;;;;;38.40;19.23;;;;;;;-5.06;100.00;98763.45;1650354;87;21064;-75
2021/12/30 03:09:28;;;;;;;37.80;18.83;;;;;;;-5.04;100.00;98751.84;1651970;87;20998;-75
2021/12/30 03:11:56;;;;;;;37.23;19.60;;;;;;;-5.02;100.00;98753.06;1652172;86;21046;-75
2021/12/30 03:14:25;;;;;;;40.03;19.47;;;;;;;-5.03;100.00;98754.86;1652239;87;21037;-75
2021/12/30 03:16:52;;;;;;;40.53;21.03;;;;;;;-5.01;100.00;98760.00;1652511;87;21073;-76
2021/12/30 03:19:20;;;;;;;39.63;19.73;;;;;;;-5.03;100.00;98757.50;1651935;87;21172;-75
2021/12/30 03:21:47;;;;;;;35.03;19.23;;;;;;;-5.05;100.00;98758.53;1651471;87;21089;-75
2021/12/30 03:24:14;;;;;;;35.70;20.17;;;;;;;-5.08;100.00;98763.55;1651659;87;21534;-75
2021/12/30 03:26:41;;;;;;;39.93;21.00;;;;;;;-5.11;100.00;98765.07;1652023;86;21012;-74
2021/12/30 03:29:08;;;;;;;37.13;20.17;;;;;;;-5.16;100.00;98765.37;1654013;87;21530;-75
2021/12/30 03:31:35;;;;;;;37.37;20.03;;;;;;;-5.17;100.00;98763.70;1668123;86;21016;-75
2021/12/30 03:34:01;;;;;;;33.07;18.80;;;;;;;-5.16;100.00;98763.22;1668248;86;21144;-75
2021/12/30 03:36:29;;;;;;;40.73;21.70;;;;;;;-5.20;100.00;98777.55;1668349;86;21111;-76
2021/12/30 03:38:57;;;;;;;47.30;25.60;;;;;;;-5.25;100.00;98775.22;1684621;84;21035;-74
2021/12/30 03:41:27;;;;;;;44.40;25.40;;;;;;;-5.26;100.00;98780.13;1704863;84;21037;-75
2021/12/30 03:43:53;;;;;;;44.23;23.07;;;;;;;-5.32;100.00;98788.42;1705055;84;21075;-76
2021/12/30 03:46:20;;;;;;;39.13;21.53;;;;;;;-5.35;100.00;98792.58;1705078;84;21024;-76
2021/12/30 03:48:47;;;;;;;37.67;19.80;;;;;;;-5.32;100.00;98793.70;1704904;84;21032;-76
2021/12/30 03:53:49;;;;;;;46.20;23.30;;;;;;;-5.25;100.00;98787.55;1594889;90;21084;-75
2021/12/30 03:56:17;;;;;;;44.00;23.93;;;;;;;-5.24;100.00;98780.87;1594525;90;21060;-74
2021/12/30 03:58:44;;;;;;;46.70;24.87;;;;;;;-5.22;100.00;98781.61;1595129;90;21084;-75
2021/12/30 04:01:14;;;;;;;47.40;25.07;;;;;;;-5.18;100.00;98783.56;1594745;89;21110;-76
2021/12/30 04:03:41;;;;;;;36.90;20.27;;;;;;;-5.16;100.00;98781.19;1604050;89;21051;-76
2021/12/30 04:06:08;;;;;;;36.47;19.60;;;;;;;-5.17;100.00;98784.78;1585370;89;21020;-75
2021/12/30 04:08:35;;;;;;;36.77;20.23;;;;;;;-5.16;100.00;98786.45;1582849;91;21094;-76
2021/12/30 04:11:02;;;;;;;32.50;17.73;;;;;;;-5.15;100.00;98784.69;1580289;91;21101;-75
2021/12/30 04:13:33;;;;;;;32.30;17.67;;;;;;;-5.12;100.00;98794.16;1580520;91;21161;-74
2021/12/30 04:16:00;;;;;;;33.73;18.50;;;;;;;-5.12;100.00;98788.41;1580276;91;21038;-76
2021/12/30 04:18:27;;;;;;;33.93;18.70;;;;;;;-5.12;100.00;98788.41;1581320;90;21049;-75
2021/12/30 04:20:54;;;;;;;31.67;17.63;;;;;;;-5.12;100.00;98795.48;1582498;91;21065;-75
2021/12/30 04:23:20;;;;;;;36.03;21.07;;;;;;;-5.11;100.00;98807.73;1582134;91;21507;-76
2021/12/30 04:25:47;;;;;;;35.17;19.87;;;;;;;-5.11;100.00;98809.88;1581386;91;21058;-76
2021/12/30 04:28:14;;;;;;;33.83;19.00;;;;;;;-5.09;100.00;98813.25;1576629;90;21047;-75
2021/12/30 04:30:41;;;;;;;34.97;19.70;;;;;;;-5.09;100.00;98820.33;1560286;90;21131;-75
2021/12/30 04:33:07;;;;;;;38.47;20.67;;;;;;;-5.11;100.00;98824.86;1575472;90;21038;-75
2021/12/30 04:35:34;;;;;;;35.70;19.30;;;;;;;-5.11;100.00;98824.86;1575310;91;21046;-77
2021/12/30 04:38:01;;;;;;;34.87;19.03;;;;;;;-5.10;100.00;98829.17;1575061;89;21608;-75
2021/12/30 04:40:28;;;;;;;33.30;19.17;;;;;;;-5.08;100.00;98824.19;1575148;90;21090;-75
2021/12/30 04:42:55;;;;;;;37.63;19.77;;;;;;;-5.05;100.00;98838.45;1575059;91;21082;-73
2021/12/30 04:45:22;;;;;;;35.60;20.37;;;;;;;-5.02;100.00;98834.30;1575112;91;21125;-74
2021/12/30 04:47:49;;;;;;;41.20;21.40;;;;;;;-5.02;100.00;98832.98;1575597;90;21019;-75
2021/12/30 04:50:16;;;;;;;39.53;22.13;;;;;;;-5.01;100.00;98838.64;1620106;85;21113;-75
2021/12/30 04:52:44;;;;;;;44.57;24.90;;;;;;;-5.01;100.00;98841.73;1725511;83;21066;-75
2021/12/30 04:55:13;;;;;;;43.97;25.10;;;;;;;-5.01;100.00;98840.41;1725080;83;21089;-75
2021/12/30 04:57:39;;;;;;;43.57;25.70;;;;;;;-5.01;100.00;98836.46;1725530;83;20982;-75
2021/12/30 05:00:09;;;;;;;47.13;25.93;;;;;;;-4.99;100.00;98838.55;1725428;83;21523;-74
2021/12/30 05:05:23;;;;;;;45.47;25.00;;;;;;;-4.94;100.00;98848.77;1731012;83;21105;-73
2021/12/30 05:07:50;;;;;;;39.87;21.97;;;;;;;-4.97;100.00;98847.19;1708268;83;21031;-74
2021/12/30 05:10:17;;;;;;;41.23;22.30;;;;;;;-4.98;100.00;98850.28;1699291;84;21047;-72
2021/12/30 05:12:49;;;;;;;40.97;22.00;;;;;;;-4.98;100.00;98849.45;1699972;84;21040;-74
2021/12/30 05:15:16;;;;;;;;;;;;;;;-5.01;100.00;98846.55;1700763;84;21062;-74
2021/12/30 05:17:43;;;;;;;39.60;23.43;;;;;;;-5.03;100.00;98852.86;1735299;81;20104;-74
2021/12/30 05:20:12;;;;;;;41.40;23.17;;;;;;;-5.04;100.00;98859.09;1734301;83;21037;-75
2021/12/30 05:22:42;;;;;;;41.83;25.07;;;;;;;-5.04;100.00;98867.84;1734491;83;21061;-73
2021/12/30 05:25:11;;;;;;;45.30;25.03;;;;;;;-5.00;100.00;98863.20;1734567;83;21033;-74
2021/12/30 05:27:39;;;;;;;38.30;21.90;;;;;;;-4.97;100.00;98863.84;1722217;83;21097;-74
2021/12/30 05:30:08;;;;;;;36.73;21.20;;;;;;;-4.94;100.00;98860.15;1699621;84;21003;-76
2021/12/30 05:32:36;;;;;;;38.97;21.80;;;;;;;-4.93;100.00;98863.66;1699575;84;21065;-74
2021/12/30 05:35:05;;;;;;;40.77;22.47;;;;;;;-4.94;100.00;98877.29;1700552;84;21034;-75
2021/12/30 05:37:33;;;;;;;47.80;25.63;;;;;;;-4.94;100.00;98880.41;1700458;84;21096;-76
2021/12/30 05:39:59;;;;;;;41.13;22.30;;;;;;;-4.96;100.00;98870.83;1700653;84;21006;-75
2021/12/30 05:42:27;;;;;;;41.70;22.93;;;;;;;-4.95;100.00;98874.30;1665113;84;21017;-75
2021/12/30 05:44:54;;;;;;;43.80;22.47;;;;;;;-4.93;100.00;98867.61;1700696;84;21025;-75
2021/12/30 05:47:21;;;;;;;54.07;30.63;;;;;;;-4.92;100.00;98865.33;1700623;84;21034;-75
2021/12/30 05:49:48;;;;;;;81.30;45.73;;;;;;;-4.92;100.00;98870.15;1700580;84;21049;-75
2021/12/30 05:52:15;;;;;;;69.37;39.80;;;;;;;-4.87;100.00;98876.41;1700749;84;21041;-75
2021/12/30 05:54:42;;;;;;;97.10;51.37;;;;;;;-4.85;100.00;98879.78;1700674;84;21084;-74
2021/12/30 05:57:09;;;;;;;238.57;129.97;;;;;;;-4.82;100.00;98883.06;1700471;84;21010;-74
2021/12/30 05:59:37;;;;;;;282.60;161.47;;;;;;;-4.80;100.00;98884.28;1700444;84;21085;-74
2021/12/30 06:02:04;;;;;;;149.83;92.30;;;;;;;-4.80;100.00;98892.20;1700464;83;21421;-74
2021/12/30 06:04:31;;;;;;;67.73;41.40;;;;;;;-4.81;100.00;98890.05;1696847;85;21061;-76
2021/12/30 06:06:58;;;;;;;69.13;43.93;;;;;;;-4.81;100.00;98890.53;1696283;84;21033;-74
2021/12/30 06:09:25;;;;;;;66.47;39.60;;;;;;;-4.81;100.00;98887.89;1696442;85;21057;-75
2021/12/30 06:11:53;;;;;;;47.27;28.83;;;;;;;-4.79;100.00;98896.54;1674929;85;21092;-75
2021/12/30 06:14:19;;;;;;;51.83;29.27;;;;;;;-4.80;100.00;98900.11;1696452;84;21017;-75
2021/12/30 06:16:47;;;;;;;61.27;36.83;;;;;;;-4.83;100.00;98909.09;1696776;85;21044;-75
2021/12/30 06:19:15;;;;;;;61.73;40.03;;;;;;;-4.82;100.00;98911.23;1696568;85;21598;-74
2021/12/30 06:21:43;;;;;;;50.13;33.70;;;;;;;-4.82;100.00;98909.92;1696892;85;21096;-73
2021/12/30 06:24:09;;;;;;;62.07;41.13;;;;;;;-4.83;100.00;98908.25;1696488;85;21028;-75
2021/12/30 06:26:36;;;;;;;57.47;40.03;;;;;;;-4.83;100.00;98910.41;1697001;83;21522;-74
2021/12/30 06:29:04;;;;;;;43.17;27.80;;;;;;;-4.82;100.00;98909.92;1696529;85;21546;-74
2021/12/30 06:31:32;;;;;;;50.80;31.20;;;;;;;-4.81;100.00;98905.03;1684189;85;21378;-75
2021/12/30 06:33:59;;;;;;;41.40;27.57;;;;;;;-4.81;100.00;98908.98;1696818;85;21013;-74
2021/12/30 06:36:25;;;;;;;33.77;19.43;;;;;;;-4.79;100.00;98904.45;1696900;85;21542;-75
2021/12/30 06:38:52;;;;;;;36.07;21.10;;;;;;;-4.79;100.00;98908.41;1692721;83;20992;-74
2021/12/30 06:41:19;;;;;;;30.17;16.90;;;;;;;-4.78;100.00;98916.22;1680512;84;20973;-73
2021/12/30 06:43:45;;;;;;;36.53;22.70;;;;;;;-4.77;100.00;98917.89;1681603;85;21575;-74
2021/12/30 06:46:12;;;;;;;66.43;43.97;;;;;;;-4.75;100.00;98913.84;1680281;85;21024;-74
2021/12/30 06:48:44;;;;;;;44.63;28.50;;;;;;;-4.72;100.00;98914.13;1674077;84;21024;-73
2021/12/30 06:51:07;;;;;;;38.83;23.13;;;;;;;-4.71;100.00;98917.98;1682301;83;21005;-74
2021/12/30 06:53:34;;;;;;;48.37;26.87;;;;;;;-4.69;100.00;98920.05;1684055;84;21032;-74
2021/12/30 06:56:01;;;;;;;45.03;27.13;;;;;;;-4.69;100.00;98920.05;1680178;85;21064;-76
2021/12/30 06:58:29;;;;;;;42.07;25.07;;;;;;;-4.67;100.00;98923.91;1681620;85;21013;-74
2021/12/30 07:00:57;;;;;;;63.87;44.63;;;;;;;-4.66;100.00;98922.94;1679578;85;21092;-75
2021/12/30 07:03:25;;;;;;;82.97;42.47;;;;;;;-4.64;100.00;98921.91;1679520;85;20981;-74
2021/12/30 07:05:54;;;;;;;39.10;21.53;;;;;;;-4.59;100.00;98922.41;1677446;85;20973;-74
2021/12/30 07:08:21;;;;;;;38.27;22.83;;;;;;;-4.53;100.00;98919.86;1694723;85;21006;-73
2021/12/30 07:10:49;;;;;;;34.80;19.60;;;;;;;-4.50;100.00;98928.03;1690887;85;21014;-73
2021/12/30 07:13:16;;;;;;;38.37;22.67;;;;;;;-4.50;100.00;98930.67;1690607;85;21114;-74
2021/12/30 07:15:43;;;;;;;38.97;23.30;;;;;;;-4.51;100.00;98936.91;1690924;85;21469;-74
2021/12/30 07:18:10;;;;;;;57.13;37.37;;;;;;;-4.51;100.00;98937.75;1690941;85;21034;-73
2021/12/30 07:20:38;;;;;;;32.90;20.27;;;;;;;-4.47;100.00;98941.86;1687347;83;21009;-72
2021/12/30 07:23:05;;;;;;;36.10;21.50;;;;;;;-4.42;100.00;98947.69;1679025;85;20981;-72
2021/12/30 07:25:31;;;;;;;36.13;18.80;;;;;;;-4.44;100.00;98948.75;1684677;85;21183;-71
2021/12/30 07:27:58;;;;;;;49.00;31.27;;;;;;;-4.44;100.00;98944.30;1683791;84;21009;-72
2021/12/30 07:30:25;;;;;;;50.10;32.17;;;;;;;-4.42;100.00;98946.84;1687630;85;21009;-73
2021/12/30 07:32:52;;;;;;;40.40;24.57;;;;;;;-4.40;100.00;98951.55;1683023;85;20993;-74
2021/12/30 07:35:19;;;;;;;67.63;43.50;;;;;;;-4.37;100.00;98947.84;1677389;85;20989;-75
2021/12/30 07:37:48;;;;;;;46.67;29.77;;;;;;;-4.32;100.00;98947.05;1683890;85;21006;-74
2021/12/30 07:40:15;;;;;;;45.00;27.07;;;;;;;-4.27;100.00;98949.75;1687686;83;21018;-73
2021/12/30 07:42:42;;;;;;;43.60;23.40;;;;;;;-4.22;100.00;98950.28;1678873;85;20981;-72
2021/12/30 07:45:10;;;;;;;45.67;26.73;;;;;;;-4.17;100.00;98947.34;1683258;85;20982;-72
2021/12/30 07:47:39;;;;;;;62.60;39.93;;;;;;;-4.12;100.00;98945.72;1681982;85;21504;-73
2021/12/30 07:50:08;;;;;;;56.50;36.53;;;;;;;-4.09;100.00;98940.20;1679610;84;21001;-74
2021/12/30 07:52:34;;;;;;;43.83;24.37;;;;;;;-4.07;100.00;98943.13;1687372;83;20938;-73
2021/12/30 07:55:01;;;;;;;44.93;24.63;;;;;;;-4.06;100.00;98945.29;1687292;84;20997;-74
2021/12/30 07:57:29;;;;;;;40.87;23.50;;;;;;;-4.08;100.00;98943.23;1682320;85;20990;-75
2021/12/30 07:59:57;;;;;;;41.30;22.03;;;;;;;-4.08;100.00;98945.88;1677694;85;21476;-73
2021/12/30 08:02:23;;;;;;;42.43;22.00;;;;;;;-4.05;100.00;98954.91;1685577;83;21001;-73
2021/12/30 08:04:50;;;;;;;47.00;25.67;;;;;;;-4.05;100.00;98951.78;1678439;85;21045;-74
2021/12/30 08:07:20;;;;;;;43.43;23.10;;;;;;;-3.99;100.00;98949.68;1688841;85;21001;-74
2021/12/30 08:09:47;;;;;;;60.80;36.23;;;;;;;-3.98;100.00;98946.07;1684392;83;21025;-73
2021/12/30 08:12:14;;;;;;;45.77;25.10;;;;;;;-3.95;100.00;98944.06;1677791;85;20989;-72
2021/12/30 08:14:43;;;;;;;133.17;73.77;;;;;;;-3.90;100.00;98944.59;1683963;85;21018;-76
2021/12/30 08:17:10;;;;;;;149.47;76.93;;;;;;;-3.81;100.00;98948.39;1677642;85;21020;-73
2021/12/30 08:19:39;;;;;;;71.20;37.67;;;;;;;-3.79;100.00;98947.80;1689369;84;21013;-73
2021/12/30 08:22:06;;;;;;;47.33;27.90;;;;;;;-3.81;100.00;98941.79;1684668;84;20938;-73
2021/12/30 08:24:34;;;;;;;42.40;23.63;;;;;;;-3.82;100.00;98938.31;1684169;85;20993;-75
2021/12/30 08:27:01;;;;;;;49.20;24.43;;;;;;;-3.83;100.00;98944.53;1686308;83;21009;-74
2021/12/30 08:29:31;;;;;;;48.67;26.80;;;;;;;-3.82;100.00;98946.23;1694351;83;21012;-73
2021/12/30 08:31:58;;;;;;;46.40;25.27;;;;;;;-3.82;100.00;98947.55;1708637;82;21030;-72
2021/12/30 08:34:25;;;;;;;46.47;24.93;;;;;;;-3.84;100.00;98947.31;1702051;83;21053;-74
2021/12/30 08:36:52;;;;;;;47.30;24.90;;;;;;;-3.84;100.00;98948.63;1700469;83;21324;-72
2021/12/30 08:39:18;;;;;;;50.63;27.40;;;;;;;-3.84;100.00;98944.67;1700144;83;20991;-74
2021/12/30 08:41:45;;;;;;;45.90;24.93;;;;;;;-3.79;100.00;98946.97;1653398;86;21015;-73
2021/12/30 08:44:12;;;;;;;50.97;28.70;;;;;;;-3.77;100.00;98956.49;1702197;83;21064;-75
2021/12/30 08:46:39;;;;;;;58.07;30.43;;;;;;;-3.74;100.00;98950.14;1701104;82;21050;-74
2021/12/30 08:49:06;;;;;;;107.83;39.33;;;;;;;-3.71;100.00;98950.77;1701400;82;20948;-74
2021/12/30 08:51:36;;;;;;;48.67;27.67;;;;;;;-3.62;100.00;98945.31;1649020;86;21006;-73
2021/12/30 08:54:04;;;;;;;56.13;28.77;;;;;;;-3.56;100.00;98946.22;1667794;85;21045;-80
2021/12/30 08:56:31;;;;;;;58.70;30.80;;;;;;;-3.55;100.00;98937.80;1658472;85;21003;-75
2021/12/30 08:58:59;;;;;;;52.60;27.17;;;;;;;-3.51;100.00;98942.75;1658680;85;21040;-73
2021/12/30 09:01:27;;;;;;;49.90;27.67;;;;;;;-3.46;100.00;98939.30;1657880;85;21036;-74
2021/12/30 09:03:55;;;;;;;98.37;39.23;;;;;;;-3.40;100.00;98942.47;1664835;85;21062;-74
2021/12/30 09:06:22;;;;;;;101.30;47.83;;;;;;;-3.38;100.00;98940.09;1652848;85;21057;-73
2021/12/30 09:08:48;;;;;;;63.43;31.43;;;;;;;-3.29;100.00;98945.20;1647564;85;21038;-74
2021/12/30 09:11:15;;;;;;;45.40;27.67;;;;;;;-3.26;100.00;98937.90;1638803;86;21078;-76
2021/12/30 09:13:44;;;;;;;76.27;46.43;;;;;;;-3.26;100.00;98935.25;1696308;82;21043;-67
2021/12/30 09:16:10;;;;;;;89.93;54.77;;;;;;;-3.24;100.00;98936.44;1703587;83;21047;-69
2021/12/30 09:18:40;;;;;;;74.47;45.33;;;;;;;-3.20;100.00;98931.80;1638436;85;21613;-69
2021/12/30 09:21:07;;;;;;;75.37;43.27;;;;;;;-3.14;100.00;98931.34;1642792;86;21098;-69
2021/12/30 09:23:34;;;;;;;103.93;61.80;;;;;;;-3.08;100.00;98926.92;1641589;85;21097;-69
2021/12/30 09:26:01;;;;;;;116.43;57.47;;;;;;;-3.07;100.00;98923.33;1642037;86;20967;-70
2021/12/30 09:28:30;;;;;;;63.83;37.97;;;;;;;-3.04;100.00;98922.28;1642660;86;21557;-71
2021/12/30 09:30:57;;;;;;;68.13;34.80;;;;;;;-3.00;100.00;98919.77;1696721;84;21104;-70
2021/12/30 09:33:24;;;;;;;97.37;43.83;;;;;;;-2.99;100.00;98915.69;1700703;83;21016;-70
2021/12/30 09:35:51;;;;;;;73.50;37.63;;;;;;;-2.99;100.00;98914.37;1704537;83;21049;-68
2021/12/30 09:38:19;;;;;;;64.77;33.80;;;;;;;-3.00;100.00;98921.09;1698251;83;21047;-70
2021/12/30 09:40:46;;;;;;;70.37;37.27;;;;;;;-3.02;100.00;98922.52;1693565;82;21565;-70
2021/12/30 09:43:13;;;;;;;85.80;42.73;;;;;;;-3.03;100.00;98921.30;1699723;83;20966;-70
2021/12/30 09:45:41;;;;;;;72.07;37.97;;;;;;;-3.00;100.00;98917.13;1702716;83;21172;-71
2021/12/30 09:48:12;;;;;;;80.97;43.63;;;;;;;-2.94;100.00;98914.01;1703640;83;20997;-70
2021/12/30 09:50:51;;;;;;;67.40;36.67;;;;;;;-2.89;100.00;98913.19;1700871;83;21504;-68
2021/12/30 09:53:21;;;;;;;92.80;45.13;;;;;;;-2.82;100.00;98910.95;1645204;86;21163;-69
2021/12/30 09:55:51;;;;;;;92.93;47.90;;;;;;;-2.71;100.00;98909.20;1677522;85;21017;-73
2021/12/30 09:58:18;;;;;;;101.83;56.43;;;;;;;-2.63;100.00;98905.97;1686364;83;21020;-70
2021/12/30 10:00:46;;;;;;;99.03;58.17;;;;;;;-2.60;100.00;98903.55;1647990;86;21018;-69
2021/12/30 10:03:13;;;;;;;173.37;82.30;;;;;;;-2.53;100.00;98899.52;1654444;86;21005;-69
2021/12/30 10:05:41;;;;;;;113.20;56.90;;;;;;;-2.42;100.00;98892.08;1628044;87;21074;-70
2021/12/30 10:08:19;;;;;;;126.10;61.20;;;;;;;-2.35;100.00;98883.55;1678467;84;21086;-66
2021/12/30 10:10:49;;;;;;;143.33;76.27;;;;;;;-2.37;100.00;98878.85;1673439;85;21030;-69
2021/12/30 10:13:29;;;;;;;136.43;75.87;;;;;;;-2.36;100.00;98877.88;1627779;86;21009;-69
2021/12/30 10:16:00;;;;;;;202.17;114.23;;;;;;;-2.31;100.00;98879.69;1631121;86;21072;-69
2021/12/30 10:18:48;;;;;;;128.30;78.73;;;;;;;-2.23;100.00;98869.84;1576172;90;21591;-68
2021/12/30 10:21:29;;;;;;;122.50;92.83;;;;;;;-2.16;100.00;98869.73;1573168;90;21116;-71
2021/12/30 10:24:00;;;;;;;94.53;58.27;;;;;;;-2.08;100.00;98870.45;1454427;97;21052;-69
2021/12/30 10:26:27;;;;;;;231.27;127.03;;;;;;;-2.06;100.00;98864.55;1444018;98;21166;-71
2021/12/30 10:28:59;;;;;;;503.70;253.73;;;;;;;-2.03;100.00;98869.61;1418192;101;21157;-70
2021/12/30 10:31:29;;;;;;;423.52;205.30;;;;;;;-2.01;100.00;98870.83;1399222;102;21141;-70
2021/12/30 10:34:09;;;;;;;340.73;148.37;;;;;;;-2.03;100.00;98866.13;1435580;99;21138;-68
2021/12/30 10:36:40;;;;;;;571.43;324.43;;;;;;;-2.10;100.00;98872.39;1424207;101;21149;-69
2021/12/30 10:39:28;;;;;;;123.00;63.00;;;;;;;-2.12;100.00;98869.84;1427733;101;21147;-71
2021/12/30 10:42:10;;;;;;;159.37;99.77;;;;;;;-2.18;100.00;98866.83;1416172;101;21122;-69
2021/12/30 10:44:52;;;;;;;136.03;77.13;;;;;;;-2.27;100.00;98871.52;1431236;99;21105;-71
2021/12/30 10:47:20;;;;;;;217.63;106.47;;;;;;;-2.34;100.00;98872.00;1397285;102;21097;-70
2021/12/30 10:50:07;;;;;;;245.50;129.63;;;;;;;-2.38;100.00;98882.45;1403172;102;21106;-70
2021/12/30 10:52:52;;;;;;;590.93;308.87;;;;;;;-2.34;100.00;98881.27;1404546;102;21164;-70
2021/12/30 10:55:19;;;;;;;;;;;;;;;-2.26;100.00;98870.08;1390257;102;21086;-69
2021/12/30 10:57:46;;;;;;;605.20;290.87;;;;;;;-2.23;100.00;98871.63;1381657;103;20228;-70
2021/12/30 11:00:31;;;;;;;246.77;115.27;;;;;;;-2.20;100.00;98864.78;1394627;102;21208;-68
2021/12/30 11:03:20;;;;;;;137.47;67.13;;;;;;;-2.19;100.00;98861.19;1384832;102;21126;-71
2021/12/30 11:06:17;;;;;;;117.27;69.10;;;;;;;-2.15;100.00;98861.30;1394481;102;21137;-70
2021/12/30 11:08:49;;;;;;;98.50;57.13;;;;;;;-2.14;100.00;98857.21;1307955;108;21699;-72
2021/12/30 11:11:25;;;;;;;91.50;49.07;;;;;;;-2.11;100.00;98856.98;1306504;110;21656;-70
2021/12/30 11:14:07;;;;;;;71.23;38.17;;;;;;;-2.08;100.00;98862.51;1307240;108;21294;-72
2021/12/30 11:17:21;;;;;;;87.67;41.83;;;;;;;-2.07;100.00;98864.66;1346441;105;21151;-72
2021/12/30 11:19:51;;;;;;;69.13;38.37;;;;;;;-2.05;100.00;98869.36;1401085;95;21062;-72
2021/12/30 11:22:21;;;;;;;68.03;35.27;;;;;;;-2.05;100.00;98870.22;1501228;93;21063;-71